Isle of Jura, United Kingdom
Current Conditions -  °F | °C
As of 8:50 AM on Friday 31 Oct 2014 (Local Time) from EGPI Reporting Station
Rain Showers Rain Showers  
Wind Chill: 59°   Ceiling: 2400
Heat Index: 59°   Visibility: 5mi
Dew Point: 57°   Wind: 22mph
Humidity: 94%   Direction: 140°SE
Pressure: 29.65"   Gusts: NA
Location:  55.84°N, 5.95°W
Report Text: EGPI 310850Z 14019KT 110V180 8000 -SHRA FEW008 BKN024 BKN048 15/14 Q1004
Loading
Personal Weather Stations






























Interactive Weather Map New forecast layout! Learn more

10-Day Weather Forecast

Advertisements
Track Severe Weather on mobile